createdAt,value
2018-11-25T00:02:13.750Z,37.17
2018-11-25T00:04:44.317Z,40.20
2018-11-25T00:07:14.489Z,42.10
2018-11-25T00:09:44.885Z,38.70
2018-11-25T00:12:15.030Z,34.47
2018-11-25T00:14:47.747Z,40.53
2018-11-25T00:17:18.117Z,35.17
2018-11-25T00:19:48.262Z,31.10
2018-11-25T00:22:18.487Z,41.13
2018-11-25T00:24:48.819Z,30.20
2018-11-25T00:27:19.067Z,32.83
2018-11-25T00:29:49.407Z,32.97
2018-11-25T00:32:20.375Z,34.10
2018-11-25T00:37:26.620Z,44.33
2018-11-25T00:39:56.767Z,47.80
2018-11-25T00:42:27.006Z,43.00
2018-11-25T00:44:57.323Z,44.97
2018-11-25T00:47:27.711Z,46.80
2018-11-25T00:49:57.933Z,50.53
2018-11-25T00:52:28.252Z,60.83
2018-11-25T00:54:58.410Z,78.40
2018-11-25T00:57:28.690Z,50.20
2018-11-25T00:59:58.857Z,45.13
2018-11-25T01:02:29.183Z,54.90
2018-11-25T01:04:59.467Z,45.17
2018-11-25T01:07:29.980Z,54.47
2018-11-25T01:10:00.091Z,52.77
2018-11-25T01:12:30.228Z,46.77
2018-11-25T01:15:00.464Z,50.33
2018-11-25T01:17:30.780Z,45.17
2018-11-25T01:20:01.061Z,66.73
2018-11-25T01:22:31.189Z,61.70
2018-11-25T01:25:01.533Z,43.87
2018-11-25T01:27:31.734Z,41.53
2018-11-25T01:30:02.060Z,58.07
2018-11-25T01:32:32.397Z,46.33
2018-11-25T01:35:02.639Z,55.10
2018-11-25T01:37:32.890Z,40.20
2018-11-25T01:40:03.226Z,48.20
2018-11-25T01:42:33.410Z,41.00
2018-11-25T01:45:03.711Z,39.37
2018-11-25T01:47:33.885Z,45.20
2018-11-25T01:50:04.121Z,48.97
2018-11-25T01:52:34.298Z,42.13
2018-11-25T01:55:05.931Z,41.30
2018-11-25T01:57:36.025Z,44.23
2018-11-25T02:00:11.286Z,42.80
2018-11-25T02:02:41.622Z,47.27
2018-11-25T02:05:11.816Z,48.27
2018-11-25T02:07:41.977Z,38.60
2018-11-25T02:10:16.527Z,48.83
2018-11-25T02:12:46.732Z,42.30
2018-11-25T02:15:17.854Z,43.40
2018-11-25T02:17:48.042Z,51.23
2018-11-25T02:20:22.184Z,41.07
2018-11-25T02:22:54.592Z,49.07
2018-11-25T02:25:24.793Z,59.40
2018-11-25T02:27:55.029Z,54.53
2018-11-25T02:30:25.267Z,49.00
2018-11-25T02:32:55.575Z,48.70
2018-11-25T02:35:25.842Z,51.20
2018-11-25T02:37:56.021Z,49.53
2018-11-25T02:40:26.219Z,56.67
2018-11-25T02:42:56.355Z,54.03
2018-11-25T02:45:26.586Z,49.13
2018-11-25T02:47:56.822Z,53.10
2018-11-25T02:50:28.411Z,43.63
2018-11-25T02:53:01.258Z,44.40
2018-11-25T02:55:31.589Z,62.47
2018-11-25T02:58:01.830Z,58.07
2018-11-25T03:00:32.217Z,68.73
2018-11-25T03:03:02.409Z,56.80
2018-11-25T03:05:32.542Z,50.33
2018-11-25T03:08:02.672Z,53.53
2018-11-25T03:10:32.918Z,61.30
2018-11-25T03:13:03.156Z,53.20
2018-11-25T03:15:33.412Z,56.70
2018-11-25T03:18:03.757Z,50.67
2018-11-25T03:20:33.887Z,52.60
2018-11-25T03:23:04.064Z,94.00
2018-11-25T03:25:34.206Z,86.73
2018-11-25T03:28:04.668Z,103.90
2018-11-25T03:30:34.895Z,74.40
2018-11-25T03:33:05.185Z,84.30
2018-11-25T03:35:35.389Z,106.67
2018-11-25T03:38:05.600Z,65.97
2018-11-25T03:40:35.865Z,61.33
2018-11-25T03:43:06.064Z,84.87
2018-11-25T03:45:36.235Z,63.97
2018-11-25T03:48:06.430Z,51.70
2018-11-25T03:50:36.613Z,52.47
2018-11-25T03:53:07.034Z,49.37
2018-11-25T03:55:37.122Z,78.23
2018-11-25T03:58:07.558Z,74.50
2018-11-25T04:00:37.808Z,75.53
2018-11-25T04:03:08.003Z,56.90
2018-11-25T04:05:38.148Z,61.37
2018-11-25T04:08:08.518Z,83.70
2018-11-25T04:10:38.660Z,108.83
2018-11-25T04:13:08.798Z,56.20
2018-11-25T04:15:39.036Z,66.83
2018-11-25T04:18:09.210Z,60.27
2018-11-25T04:20:39.454Z,98.93
2018-11-25T04:23:09.705Z,116.50
2018-11-25T04:25:39.862Z,100.90
2018-11-25T04:28:10.025Z,137.97
2018-11-25T04:30:40.369Z,98.17
2018-11-25T04:33:10.691Z,97.27
2018-11-25T04:35:41.032Z,153.23
2018-11-25T04:38:11.316Z,56.87
2018-11-25T04:40:41.673Z,88.87
2018-11-25T04:43:12.107Z,66.97
2018-11-25T04:45:42.350Z,134.03
2018-11-25T04:48:12.661Z,52.20
2018-11-25T04:50:42.817Z,111.30
2018-11-25T04:53:13.085Z,105.67
2018-11-25T04:55:43.239Z,95.40
2018-11-25T04:58:13.334Z,55.60
2018-11-25T05:00:43.552Z,66.63
2018-11-25T05:03:13.790Z,70.00
2018-11-25T05:05:44.210Z,81.53
2018-11-25T05:08:14.402Z,70.93
2018-11-25T05:10:44.692Z,68.50
2018-11-25T05:13:15.037Z,64.37
2018-11-25T05:15:45.323Z,60.67
2018-11-25T05:18:15.565Z,63.97
2018-11-25T05:20:45.786Z,57.13
2018-11-25T05:23:15.888Z,62.40
2018-11-25T05:25:46.269Z,48.47
2018-11-25T05:28:16.370Z,71.57
2018-11-25T05:30:46.549Z,50.33
2018-11-25T05:33:16.723Z,58.93
2018-11-25T05:35:47.004Z,47.63
2018-11-25T05:38:17.240Z,56.93
2018-11-25T05:40:47.401Z,84.77
2018-11-25T05:43:17.841Z,59.87
2018-11-25T05:45:47.973Z,48.77
2018-11-25T05:48:18.210Z,46.53
2018-11-25T05:50:48.499Z,60.13
2018-11-25T05:53:18.657Z,56.47
2018-11-25T05:55:48.974Z,49.60
2018-11-25T05:58:19.145Z,49.43
2018-11-25T06:00:49.410Z,45.70
2018-11-25T06:03:19.615Z,51.50
2018-11-25T06:05:49.827Z,61.83
2018-11-25T06:08:20.109Z,45.27
2018-11-25T06:10:50.360Z,59.17
2018-11-25T06:13:20.581Z,96.90
2018-11-25T06:15:50.755Z,49.40
2018-11-25T06:18:21.114Z,66.90
2018-11-25T06:20:51.381Z,54.40
2018-11-25T06:23:21.675Z,73.07
2018-11-25T06:25:51.835Z,93.03
2018-11-25T06:28:22.017Z,71.70
2018-11-25T06:30:52.422Z,66.80
2018-11-25T06:33:22.672Z,56.00
2018-11-25T06:35:52.839Z,58.77
2018-11-25T06:38:24.378Z,48.87
2018-11-25T06:40:54.065Z,55.57
2018-11-25T06:43:24.301Z,62.70
2018-11-25T06:45:54.552Z,68.37
2018-11-25T06:48:25.002Z,58.07
2018-11-25T06:50:55.145Z,45.03
2018-11-25T06:53:25.401Z,52.27
2018-11-25T06:55:55.683Z,53.43
2018-11-25T06:58:25.858Z,52.33
2018-11-25T07:00:56.034Z,56.47
2018-11-25T07:03:26.085Z,55.63
2018-11-25T07:05:56.198Z,67.00
2018-11-25T07:08:26.243Z,55.80
2018-11-25T07:10:56.363Z,39.80
2018-11-25T07:13:26.513Z,51.40
2018-11-25T07:15:56.745Z,41.80
2018-11-25T07:18:26.889Z,42.83
2018-11-25T07:20:57.084Z,43.90
2018-11-25T07:23:27.416Z,48.67
2018-11-25T07:25:57.609Z,45.23
2018-11-25T07:28:28.472Z,65.27
2018-11-25T07:30:58.641Z,67.97
2018-11-25T07:33:28.848Z,60.47
2018-11-25T07:35:59.035Z,51.27
2018-11-25T07:38:29.232Z,72.47
2018-11-25T07:40:59.501Z,66.10
2018-11-25T07:43:29.715Z,63.00
2018-11-25T07:45:59.953Z,60.40
2018-11-25T07:48:30.096Z,67.47
2018-11-25T07:51:00.290Z,63.37
2018-11-25T07:53:30.391Z,64.33
2018-11-25T07:56:00.766Z,67.47
2018-11-25T07:58:30.946Z,64.63
2018-11-25T08:01:01.156Z,50.97
2018-11-25T08:03:31.310Z,93.77
2018-11-25T08:06:01.546Z,64.50
2018-11-25T08:08:31.890Z,70.53
2018-11-25T08:11:02.039Z,52.47
2018-11-25T08:13:32.198Z,66.67
2018-11-25T08:16:02.648Z,62.23
2018-11-25T08:18:32.750Z,44.57
2018-11-25T08:21:03.019Z,65.07
2018-11-25T08:23:33.238Z,49.90
2018-11-25T08:26:03.482Z,44.73
2018-11-25T08:28:33.690Z,61.93
2018-11-25T08:31:03.995Z,48.30
2018-11-25T08:33:34.106Z,43.07
2018-11-25T08:36:04.280Z,38.27
2018-11-25T08:38:34.435Z,43.83
2018-11-25T08:41:04.769Z,36.53
2018-11-25T08:43:35.028Z,49.80
2018-11-25T08:46:05.329Z,42.00
2018-11-25T08:48:35.575Z,41.67
2018-11-25T08:51:06.049Z,41.67
2018-11-25T08:53:36.541Z,44.83
2018-11-25T08:56:07.352Z,46.10
2018-11-25T08:58:37.486Z,45.77
2018-11-25T09:01:08.412Z,43.37
2018-11-25T09:03:38.636Z,41.10
2018-11-25T09:06:09.208Z,45.60
2018-11-25T09:08:39.471Z,41.40
2018-11-25T09:11:09.794Z,43.50
2018-11-25T09:13:40.472Z,41.43
2018-11-25T09:16:10.642Z,40.13
2018-11-25T09:18:40.947Z,45.80
2018-11-25T09:21:11.599Z,46.17
2018-11-25T09:23:41.872Z,41.60
2018-11-25T09:26:12.214Z,51.20
2018-11-25T09:28:42.404Z,53.93
2018-11-25T09:31:12.549Z,41.77
2018-11-25T09:33:42.750Z,42.40
2018-11-25T09:36:12.978Z,36.63
2018-11-25T09:38:43.164Z,41.50
2018-11-25T09:41:13.415Z,36.63
2018-11-25T09:43:43.530Z,34.40
2018-11-25T09:46:13.711Z,34.90
2018-11-25T09:48:43.890Z,33.53
2018-11-25T09:51:14.072Z,37.43
2018-11-25T09:53:44.327Z,28.63
2018-11-25T09:56:14.584Z,41.00
2018-11-25T09:58:44.661Z,33.97
2018-11-25T10:01:14.785Z,35.83
2018-11-25T10:03:45.020Z,36.83
2018-11-25T10:06:15.193Z,37.77
2018-11-25T10:08:45.308Z,36.13
2018-11-25T10:11:15.475Z,35.40
2018-11-25T10:13:45.582Z,35.17
2018-11-25T10:16:15.745Z,37.13
2018-11-25T10:18:45.834Z,37.90
2018-11-25T10:21:15.961Z,31.73
2018-11-25T10:23:46.084Z,34.43
2018-11-25T10:26:16.292Z,32.70
2018-11-25T10:28:46.662Z,36.13
2018-11-25T10:31:16.742Z,33.43
2018-11-25T10:33:47.125Z,32.63
2018-11-25T10:36:17.336Z,31.57
2018-11-25T10:38:47.808Z,30.70
2018-11-25T10:41:17.941Z,26.23
2018-11-25T10:43:48.314Z,38.73
2018-11-25T10:46:18.466Z,36.70
2018-11-25T10:48:48.677Z,33.43
2018-11-25T10:51:18.823Z,35.23
2018-11-25T10:53:48.999Z,35.07
2018-11-25T10:56:19.168Z,31.43
2018-11-25T10:58:49.245Z,34.77
2018-11-25T11:01:24.460Z,34.20
2018-11-25T11:03:55.965Z,31.30
2018-11-25T11:06:32.024Z,34.03
2018-11-25T11:09:02.265Z,29.77
2018-11-25T11:11:32.856Z,35.10
2018-11-25T11:14:03.070Z,28.63
2018-11-25T11:16:33.099Z,37.73
2018-11-25T11:19:03.255Z,29.53
2018-11-25T11:21:33.454Z,31.40
2018-11-25T11:24:03.554Z,31.10
2018-11-25T11:26:33.621Z,37.13
2018-11-25T11:29:03.791Z,36.33
2018-11-25T11:31:34.529Z,35.60
2018-11-25T11:34:04.729Z,35.43
2018-11-25T11:36:34.981Z,28.60
2018-11-25T11:39:07.351Z,36.33
2018-11-25T11:41:37.596Z,36.27
2018-11-25T11:44:07.710Z,29.63
2018-11-25T11:46:37.911Z,31.17
2018-11-25T11:49:08.431Z,33.33
2018-11-25T11:51:38.661Z,28.10
2018-11-25T11:54:08.717Z,32.63
2018-11-25T11:56:40.348Z,34.77
2018-11-25T11:59:09.210Z,35.53
2018-11-25T12:01:39.482Z,30.60
2018-11-25T12:04:09.666Z,26.40
2018-11-25T12:06:39.805Z,29.20
2018-11-25T12:09:11.514Z,37.37
2018-11-25T12:11:41.677Z,27.23
2018-11-25T12:14:11.816Z,31.40
2018-11-25T12:16:41.978Z,29.67
2018-11-25T12:19:12.083Z,33.33
2018-11-25T12:21:42.348Z,31.77
2018-11-25T12:24:12.434Z,31.50
2018-11-25T12:26:42.648Z,31.30
2018-11-25T12:29:12.711Z,37.77
2018-11-25T12:31:42.864Z,46.33
2018-11-25T12:34:13.081Z,29.37
2018-11-25T12:36:43.161Z,34.13
2018-11-25T12:39:13.895Z,38.13
2018-11-25T12:41:44.074Z,31.27
2018-11-25T12:44:14.154Z,30.33
2018-11-25T12:46:44.380Z,32.33
2018-11-25T12:49:14.485Z,39.57
2018-11-25T12:51:45.092Z,39.80
2018-11-25T12:54:15.234Z,42.33
2018-11-25T12:56:51.664Z,43.43
2018-11-25T12:59:15.534Z,45.27
2018-11-25T13:01:45.659Z,45.10
2018-11-25T13:04:15.787Z,40.20
2018-11-25T13:06:45.934Z,53.40
2018-11-25T13:09:16.090Z,49.33
2018-11-25T13:11:52.328Z,46.50
2018-11-25T13:14:16.386Z,46.13
2018-11-25T13:16:46.596Z,44.43
2018-11-25T13:19:16.651Z,48.17
2018-11-25T13:21:46.847Z,45.30
2018-11-25T13:24:17.008Z,47.97
2018-11-25T13:26:47.093Z,43.50
2018-11-25T13:29:17.210Z,47.40
2018-11-25T13:31:47.340Z,49.93
2018-11-25T13:34:17.440Z,47.57
2018-11-25T13:36:47.638Z,49.10
2018-11-25T13:39:17.978Z,57.30
2018-11-25T13:41:48.739Z,50.57
2018-11-25T13:44:18.819Z,44.17
2018-11-25T13:46:49.076Z,55.40
2018-11-25T13:49:19.215Z,70.60
2018-11-25T13:51:49.289Z,60.53
2018-11-25T13:54:19.364Z,64.87
2018-11-25T13:56:49.480Z,56.60
2018-11-25T13:59:19.531Z,52.37
2018-11-25T14:01:49.720Z,54.63
2018-11-25T14:04:19.812Z,56.10
2018-11-25T14:06:49.970Z,52.87
2018-11-25T14:09:20.193Z,57.37
2018-11-25T14:11:50.484Z,55.37
2018-11-25T14:14:20.569Z,57.43
2018-11-25T14:16:50.817Z,48.60
2018-11-25T14:19:20.860Z,62.67
2018-11-25T14:21:51.009Z,56.77
2018-11-25T14:24:21.218Z,63.63
2018-11-25T14:26:57.566Z,56.70
2018-11-25T14:29:28.214Z,63.43
2018-11-25T14:31:59.197Z,54.90
2018-11-25T14:34:29.420Z,53.77
2018-11-25T14:36:59.603Z,61.50
2018-11-25T14:39:30.044Z,63.87
2018-11-25T14:42:00.184Z,52.80
2018-11-25T14:44:30.280Z,50.43
2018-11-25T14:47:00.467Z,58.20
2018-11-25T14:49:30.574Z,50.67
2018-11-25T14:52:00.693Z,55.03
2018-11-25T14:54:30.857Z,51.07
2018-11-25T14:57:00.953Z,49.90
2018-11-25T14:59:31.063Z,52.97
2018-11-25T15:02:01.227Z,52.70
2018-11-25T15:04:36.049Z,57.03
2018-11-25T15:07:01.533Z,52.07
2018-11-25T15:09:31.641Z,59.77
2018-11-25T15:12:01.812Z,58.30
2018-11-25T15:14:31.943Z,61.87
2018-11-25T15:17:02.159Z,56.70
2018-11-25T15:19:32.276Z,50.50
2018-11-25T15:22:02.942Z,49.47
2018-11-25T15:24:33.054Z,49.13
2018-11-25T15:27:03.308Z,62.37
2018-11-25T15:29:33.666Z,53.57
2018-11-25T15:32:04.061Z,46.80
2018-11-25T15:34:34.138Z,52.97
2018-11-25T15:37:04.435Z,46.63
2018-11-25T15:39:34.578Z,42.53
2018-11-25T15:42:04.749Z,52.87
2018-11-25T15:44:34.831Z,48.63
2018-11-25T15:47:08.249Z,52.43
2018-11-25T15:49:35.172Z,48.10
2018-11-25T15:52:06.875Z,44.03
2018-11-25T15:54:36.959Z,49.90
2018-11-25T15:57:07.591Z,43.77
2018-11-25T15:59:37.670Z,49.50
2018-11-25T16:02:07.853Z,50.67
2018-11-25T16:04:38.039Z,40.00
2018-11-25T16:07:08.204Z,33.20
2018-11-25T16:09:38.249Z,43.63
2018-11-25T16:12:08.361Z,41.60
2018-11-25T16:14:38.436Z,48.87
2018-11-25T16:17:08.673Z,51.37
2018-11-25T16:19:38.740Z,42.70
2018-11-25T16:22:08.853Z,38.43
2018-11-25T16:24:38.908Z,35.70
2018-11-25T16:27:09.357Z,39.43
2018-11-25T16:29:39.427Z,34.20
2018-11-25T16:32:09.549Z,37.87
2018-11-25T16:34:39.627Z,36.90
2018-11-25T16:37:09.825Z,32.43
2018-11-25T16:39:39.877Z,37.53
2018-11-25T16:42:09.972Z,34.93
2018-11-25T16:44:40.054Z,33.67
2018-11-25T16:47:10.182Z,32.40
2018-11-25T16:49:40.316Z,33.53
2018-11-25T16:52:10.416Z,31.33
2018-11-25T16:54:40.499Z,33.50
2018-11-25T16:57:10.670Z,36.07
2018-11-25T16:59:40.733Z,32.00
2018-11-25T17:02:10.850Z,30.93
2018-11-25T17:04:40.915Z,42.63
2018-11-25T17:07:11.101Z,36.10
2018-11-25T17:09:41.217Z,38.20
2018-11-25T17:12:11.291Z,34.83
2018-11-25T17:14:41.378Z,37.77
2018-11-25T17:17:11.521Z,34.80
2018-11-25T17:19:41.598Z,41.43
2018-11-25T17:22:16.392Z,31.67
2018-11-25T17:24:41.965Z,30.80
2018-11-25T17:27:12.087Z,39.93
2018-11-25T17:29:42.241Z,32.90
2018-11-25T17:32:12.300Z,33.33
2018-11-25T17:34:42.416Z,44.10
2018-11-25T17:37:12.531Z,42.57
2018-11-25T17:39:42.674Z,40.47
2018-11-25T17:42:12.763Z,39.93
2018-11-25T17:44:42.869Z,34.10
2018-11-25T17:47:12.960Z,37.73
2018-11-25T17:49:43.026Z,35.17
2018-11-25T17:52:13.164Z,36.70
2018-11-25T17:54:43.258Z,38.83
2018-11-25T17:57:13.431Z,31.87
2018-11-25T17:59:43.536Z,28.50
2018-11-25T18:02:13.659Z,32.93
2018-11-25T18:04:43.761Z,33.23
2018-11-25T18:07:13.850Z,35.20
2018-11-25T18:09:44.132Z,44.03
2018-11-25T18:12:14.312Z,39.00
2018-11-25T18:14:44.409Z,35.60
2018-11-25T18:17:14.586Z,39.97
2018-11-25T18:19:44.743Z,40.50
2018-11-25T18:22:20.925Z,39.70
2018-11-25T18:24:50.988Z,39.20
2018-11-25T18:27:21.148Z,33.57
2018-11-25T18:29:51.258Z,44.80
2018-11-25T18:32:21.424Z,35.73
2018-11-25T18:34:51.559Z,36.80
2018-11-25T18:37:21.679Z,43.83
2018-11-25T18:39:51.971Z,36.50
2018-11-25T18:42:22.125Z,45.57
2018-11-25T18:44:52.319Z,44.67
2018-11-25T18:47:22.568Z,48.20
2018-11-25T18:49:52.621Z,34.83
2018-11-25T18:52:22.725Z,50.47
2018-11-25T18:54:50.799Z,35.13
2018-11-25T18:57:21.049Z,39.30
2018-11-25T18:59:51.316Z,40.17
2018-11-25T19:02:27.747Z,38.97
2018-11-25T19:04:57.880Z,56.03
2018-11-25T19:10:11.395Z,60.20
2018-11-25T19:12:44.341Z,49.53
2018-11-25T19:15:15.138Z,48.37
2018-11-25T19:17:45.332Z,49.70
2018-11-25T19:20:25.834Z,48.77
2018-11-25T19:22:56.671Z,50.03
2018-11-25T19:25:27.083Z,34.53
2018-11-25T19:27:58.301Z,49.17
2018-11-25T19:30:28.444Z,45.50
2018-11-25T19:32:58.612Z,49.90
2018-11-25T19:35:28.987Z,45.07
2018-11-25T19:37:59.224Z,47.30
2018-11-25T19:40:30.046Z,53.50
2018-11-25T19:43:00.194Z,55.77
2018-11-25T19:45:30.491Z,57.57
2018-11-25T19:48:00.936Z,49.90
2018-11-25T19:50:33.201Z,49.40
2018-11-25T19:53:03.526Z,49.40
2018-11-25T19:55:34.380Z,41.03
2018-11-25T19:58:04.962Z,46.40
2018-11-25T20:00:35.106Z,61.00
2018-11-25T20:03:05.657Z,67.00
2018-11-25T20:05:36.531Z,47.97
2018-11-25T20:08:07.297Z,49.93
2018-11-25T20:10:37.638Z,53.50
2018-11-25T20:13:10.232Z,51.90
2018-11-25T20:15:40.931Z,63.23
2018-11-25T20:18:11.799Z,48.40
2018-11-25T20:20:42.189Z,56.13
2018-11-25T20:23:12.768Z,57.27
2018-11-25T20:25:43.024Z,55.27
2018-11-25T20:28:13.427Z,52.97
2018-11-25T20:30:43.609Z,55.00
2018-11-25T20:33:18.864Z,56.30
2018-11-25T20:35:49.154Z,56.07
2018-11-25T20:38:24.388Z,57.87
2018-11-25T20:40:54.645Z,46.13
2018-11-25T20:43:25.541Z,62.80
2018-11-25T20:46:01.119Z,56.40
2018-11-25T20:48:31.785Z,53.20
2018-11-25T20:51:02.352Z,54.07
2018-11-25T20:53:37.627Z,68.50
2018-11-25T20:56:07.972Z,63.53
2018-11-25T20:58:38.101Z,61.80
2018-11-25T21:01:10.883Z,59.53
2018-11-25T21:03:41.537Z,48.07
2018-11-25T21:06:12.408Z,51.37
2018-11-25T21:08:45.049Z,70.77
2018-11-25T21:11:15.758Z,57.73
2018-11-25T21:13:46.254Z,57.43
2018-11-25T21:16:16.479Z,62.27
2018-11-25T21:18:46.964Z,65.50
2018-11-25T21:21:18.061Z,48.87
2018-11-25T21:23:48.301Z,53.20
2018-11-25T21:26:18.504Z,48.07
2018-11-25T21:28:48.726Z,50.27
2018-11-25T21:31:19.652Z,62.07
2018-11-25T21:33:49.849Z,57.27
2018-11-25T21:36:20.061Z,58.80
2018-11-25T21:38:50.309Z,56.70
2018-11-25T21:41:20.383Z,61.93
2018-11-25T21:43:50.826Z,54.77
2018-11-25T21:46:21.015Z,54.27
2018-11-25T21:48:51.326Z,53.03
2018-11-25T21:51:21.629Z,55.43
2018-11-25T21:53:52.326Z,57.00
2018-11-25T21:56:22.685Z,52.17
2018-11-25T21:58:52.922Z,53.47
2018-11-25T22:01:23.308Z,54.97
2018-11-25T22:04:00.592Z,40.50
2018-11-25T22:06:31.234Z,61.10
2018-11-25T22:09:10.575Z,55.67
2018-11-25T22:11:41.200Z,46.40
2018-11-25T22:14:11.690Z,50.03
2018-11-25T22:16:42.078Z,53.30
2018-11-25T22:19:13.319Z,46.27
2018-11-25T22:21:43.655Z,52.47
2018-11-25T22:24:13.764Z,51.07
2018-11-25T22:26:43.913Z,51.83
2018-11-25T22:29:14.605Z,60.17
2018-11-25T22:31:44.835Z,56.90
2018-11-25T22:34:15.012Z,64.07
2018-11-25T22:36:45.319Z,49.87
2018-11-25T22:39:16.540Z,49.63
2018-11-25T22:41:46.807Z,63.53
2018-11-25T22:44:17.046Z,53.70
2018-11-25T22:46:47.208Z,51.87
2018-11-25T22:49:17.543Z,58.53
2018-11-25T22:51:47.785Z,57.03
2018-11-25T22:54:18.006Z,52.63
2018-11-25T22:56:48.322Z,53.97
2018-11-25T22:59:18.838Z,60.13
2018-11-25T23:01:49.462Z,53.00
2018-11-25T23:04:37.006Z,58.80
2018-11-25T23:07:07.241Z,48.67
2018-11-25T23:09:37.311Z,51.60
2018-11-25T23:12:07.652Z,55.53
2018-11-25T23:14:37.797Z,51.63
2018-11-25T23:17:08.013Z,54.40
2018-11-25T23:19:38.071Z,45.80
2018-11-25T23:22:08.248Z,52.27
2018-11-25T23:24:38.355Z,51.80
2018-11-25T23:27:08.494Z,49.93
2018-11-25T23:29:38.638Z,49.50
2018-11-25T23:32:08.812Z,57.10
2018-11-25T23:34:38.899Z,46.90
2018-11-25T23:37:09.604Z,60.27
2018-11-25T23:39:39.722Z,49.70
2018-11-25T23:42:09.944Z,51.63
2018-11-25T23:44:40.058Z,56.20
2018-11-25T23:47:10.247Z,54.13
2018-11-25T23:49:40.401Z,46.47
2018-11-25T23:52:10.522Z,47.13
2018-11-25T23:54:40.665Z,47.00
2018-11-25T23:57:10.852Z,53.60
2018-11-25T23:59:41.031Z,61.83
